sensor_id;sensor_type;location;lat;lon;timestamp;temperature;humidity
4564;DHT22;2294;51.818;8.484;2023-03-04T00:02:14;5.60;99.90
4564;DHT22;2294;51.818;8.484;2023-03-04T00:04:41;5.50;99.90
4564;DHT22;2294;51.818;8.484;2023-03-04T00:07:09;5.60;99.90
4564;DHT22;2294;51.818;8.484;2023-03-04T00:09:37;5.50;99.90
4564;DHT22;2294;51.818;8.484;2023-03-04T00:12:04;5.50;99.90
4564;DHT22;2294;51.818;8.484;2023-03-04T00:14:33;5.60;99.90
4564;DHT22;2294;51.818;8.484;2023-03-04T00:17:00;5.60;99.90
4564;DHT22;2294;51.818;8.484;2023-03-04T00:19:28;5.70;99.90
4564;DHT22;2294;51.818;8.484;2023-03-04T00:21:55;5.60;99.90
4564;DHT22;2294;51.818;8.484;2023-03-04T00:24:24;5.70;99.90
4564;DHT22;2294;51.818;8.484;2023-03-04T00:26:51;5.70;99.90
4564;DHT22;2294;51.818;8.484;2023-03-04T00:29:18;5.70;99.90
4564;DHT22;2294;51.818;8.484;2023-03-04T00:31:44;5.60;99.90
4564;DHT22;2294;51.818;8.484;2023-03-04T00:34:11;5.70;99.90
4564;DHT22;2294;51.818;8.484;2023-03-04T00:36:38;6.90;99.90
4564;DHT22;2294;51.818;8.484;2023-03-04T00:39:05;5.60;99.90
4564;DHT22;2294;51.818;8.484;2023-03-04T00:41:33;5.60;99.90
4564;DHT22;2294;51.818;8.484;2023-03-04T00:44:00;5.70;99.90
4564;DHT22;2294;51.818;8.484;2023-03-04T00:46:27;5.70;99.90
4564;DHT22;2294;51.818;8.484;2023-03-04T00:48:54;5.70;99.90
4564;DHT22;2294;51.818;8.484;2023-03-04T00:51:21;5.70;99.90
4564;DHT22;2294;51.818;8.484;2023-03-04T00:53:48;5.70;99.90
4564;DHT22;2294;51.818;8.484;2023-03-04T00:56:16;5.70;99.90
4564;DHT22;2294;51.818;8.484;2023-03-04T00:58:45;5.70;99.90
4564;DHT22;2294;51.818;8.484;2023-03-04T01:01:11;5.60;99.90
4564;DHT22;2294;51.818;8.484;2023-03-04T01:03:38;5.60;99.90
4564;DHT22;2294;51.818;8.484;2023-03-04T01:06:06;5.60;99.90
4564;DHT22;2294;51.818;8.484;2023-03-04T01:08:33;5.60;99.90
4564;DHT22;2294;51.818;8.484;2023-03-04T01:11:00;5.60;99.90
4564;DHT22;2294;51.818;8.484;2023-03-04T01:13:27;5.60;99.90
4564;DHT22;2294;51.818;8.484;2023-03-04T01:15:55;5.70;99.90
4564;DHT22;2294;51.818;8.484;2023-03-04T01:18:22;5.70;99.90
4564;DHT22;2294;51.818;8.484;2023-03-04T01:20:49;5.80;99.90
4564;DHT22;2294;51.818;8.484;2023-03-04T01:23:16;5.80;99.90
4564;DHT22;2294;51.818;8.484;2023-03-04T01:25:43;5.70;99.90
4564;DHT22;2294;51.818;8.484;2023-03-04T01:28:10;5.70;99.90
4564;DHT22;2294;51.818;8.484;2023-03-04T01:30:37;5.70;99.90
4564;DHT22;2294;51.818;8.484;2023-03-04T01:33:05;5.70;99.90
4564;DHT22;2294;51.818;8.484;2023-03-04T01:35:32;5.70;99.90
4564;DHT22;2294;51.818;8.484;2023-03-04T01:37:59;6.20;99.90
4564;DHT22;2294;51.818;8.484;2023-03-04T01:40:26;5.70;99.90
4564;DHT22;2294;51.818;8.484;2023-03-04T01:42:53;5.80;99.90
4564;DHT22;2294;51.818;8.484;2023-03-04T01:45:20;5.90;99.90
4564;DHT22;2294;51.818;8.484;2023-03-04T01:47:47;5.80;99.90
4564;DHT22;2294;51.818;8.484;2023-03-04T01:50:21;5.80;99.90
4564;DHT22;2294;51.818;8.484;2023-03-04T01:52:48;5.90;99.90
4564;DHT22;2294;51.818;8.484;2023-03-04T01:55:17;5.90;99.90
4564;DHT22;2294;51.818;8.484;2023-03-04T01:57:45;5.80;99.90
4564;DHT22;2294;51.818;8.484;2023-03-04T02:00:27;5.80;99.90
4564;DHT22;2294;51.818;8.484;2023-03-04T02:02:58;5.70;99.90
4564;DHT22;2294;51.818;8.484;2023-03-04T02:05:27;5.70;99.90
4564;DHT22;2294;51.818;8.484;2023-03-04T02:07:56;5.80;99.90
4564;DHT22;2294;51.818;8.484;2023-03-04T02:10:24;5.80;99.90
4564;DHT22;2294;51.818;8.484;2023-03-04T02:12:51;5.70;99.90
4564;DHT22;2294;51.818;8.484;2023-03-04T02:15:19;5.70;99.90
4564;DHT22;2294;51.818;8.484;2023-03-04T02:17:46;5.60;99.90
4564;DHT22;2294;51.818;8.484;2023-03-04T02:20:27;5.60;99.90
4564;DHT22;2294;51.818;8.484;2023-03-04T02:23:02;5.60;99.90
4564;DHT22;2294;51.818;8.484;2023-03-04T02:25:35;5.60;99.90
4564;DHT22;2294;51.818;8.484;2023-03-04T02:28:04;5.60;99.90
4564;DHT22;2294;51.818;8.484;2023-03-04T02:30:31;5.60;99.90
4564;DHT22;2294;51.818;8.484;2023-03-04T02:32:59;5.60;99.90
4564;DHT22;2294;51.818;8.484;2023-03-04T02:35:26;5.60;99.90
4564;DHT22;2294;51.818;8.484;2023-03-04T02:37:53;5.60;99.90
4564;DHT22;2294;51.818;8.484;2023-03-04T02:40:24;5.60;99.90
4564;DHT22;2294;51.818;8.484;2023-03-04T02:42:52;5.60;99.90
4564;DHT22;2294;51.818;8.484;2023-03-04T02:45:34;5.60;99.90
4564;DHT22;2294;51.818;8.484;2023-03-04T02:48:02;5.60;99.90
4564;DHT22;2294;51.818;8.484;2023-03-04T02:50:33;5.50;99.90
4564;DHT22;2294;51.818;8.484;2023-03-04T02:53:01;5.50;99.90
4564;DHT22;2294;51.818;8.484;2023-03-04T02:55:28;5.60;99.90
4564;DHT22;2294;51.818;8.484;2023-03-04T02:57:56;5.50;99.90
4564;DHT22;2294;51.818;8.484;2023-03-04T03:00:23;5.50;99.90
4564;DHT22;2294;51.818;8.484;2023-03-04T03:02:52;5.50;99.90
4564;DHT22;2294;51.818;8.484;2023-03-04T03:05:21;5.50;99.90
4564;DHT22;2294;51.818;8.484;2023-03-04T03:07:48;5.60;99.90
4564;DHT22;2294;51.818;8.484;2023-03-04T03:10:15;5.50;99.90
4564;DHT22;2294;51.818;8.484;2023-03-04T03:12:42;5.60;99.90
4564;DHT22;2294;51.818;8.484;2023-03-04T03:15:10;5.60;99.90
4564;DHT22;2294;51.818;8.484;2023-03-04T03:17:37;5.60;99.90
4564;DHT22;2294;51.818;8.484;2023-03-04T03:20:07;5.60;99.90
4564;DHT22;2294;51.818;8.484;2023-03-04T03:22:34;5.60;99.90
4564;DHT22;2294;51.818;8.484;2023-03-04T03:25:01;5.50;99.90
4564;DHT22;2294;51.818;8.484;2023-03-04T03:27:28;5.60;99.90
4564;DHT22;2294;51.818;8.484;2023-03-04T03:29:55;5.60;99.90
4564;DHT22;2294;51.818;8.484;2023-03-04T03:32:22;5.60;99.90
4564;DHT22;2294;51.818;8.484;2023-03-04T03:34:49;5.70;99.90
4564;DHT22;2294;51.818;8.484;2023-03-04T03:37:17;5.60;99.90
4564;DHT22;2294;51.818;8.484;2023-03-04T03:39:44;5.60;99.90
4564;DHT22;2294;51.818;8.484;2023-03-04T03:42:11;5.60;99.90
4564;DHT22;2294;51.818;8.484;2023-03-04T03:44:38;5.70;99.90
4564;DHT22;2294;51.818;8.484;2023-03-04T03:47:05;5.70;99.90
4564;DHT22;2294;51.818;8.484;2023-03-04T03:49:32;5.70;99.90
4564;DHT22;2294;51.818;8.484;2023-03-04T03:51:58;5.70;99.90
4564;DHT22;2294;51.818;8.484;2023-03-04T03:54:27;5.70;99.90
4564;DHT22;2294;51.818;8.484;2023-03-04T03:56:54;5.70;99.90
4564;DHT22;2294;51.818;8.484;2023-03-04T03:59:21;5.70;99.90
4564;DHT22;2294;51.818;8.484;2023-03-04T04:01:48;5.70;99.90
4564;DHT22;2294;51.818;8.484;2023-03-04T04:04:15;5.70;99.90
4564;DHT22;2294;51.818;8.484;2023-03-04T04:06:42;5.70;99.90
4564;DHT22;2294;51.818;8.484;2023-03-04T04:09:09;5.70;99.90
4564;DHT22;2294;51.818;8.484;2023-03-04T04:11:37;5.70;99.90
4564;DHT22;2294;51.818;8.484;2023-03-04T04:14:04;5.70;99.90
4564;DHT22;2294;51.818;8.484;2023-03-04T04:16:31;5.70;99.90
4564;DHT22;2294;51.818;8.484;2023-03-04T04:18:58;5.60;99.90
4564;DHT22;2294;51.818;8.484;2023-03-04T04:21:24;5.70;99.90
4564;DHT22;2294;51.818;8.484;2023-03-04T04:23:51;5.60;99.90
4564;DHT22;2294;51.818;8.484;2023-03-04T04:26:18;5.60;99.90
4564;DHT22;2294;51.818;8.484;2023-03-04T04:28:46;5.70;99.90
4564;DHT22;2294;51.818;8.484;2023-03-04T04:31:13;5.70;99.90
4564;DHT22;2294;51.818;8.484;2023-03-04T04:33:40;5.60;99.90
4564;DHT22;2294;51.818;8.484;2023-03-04T04:36:09;5.70;99.90
4564;DHT22;2294;51.818;8.484;2023-03-04T04:38:37;5.60;99.90
4564;DHT22;2294;51.818;8.484;2023-03-04T04:41:04;5.70;99.90
4564;DHT22;2294;51.818;8.484;2023-03-04T04:43:31;5.70;99.90
4564;DHT22;2294;51.818;8.484;2023-03-04T04:46:00;5.70;99.90
4564;DHT22;2294;51.818;8.484;2023-03-04T04:48:27;5.70;99.90
4564;DHT22;2294;51.818;8.484;2023-03-04T04:50:54;5.60;99.90
4564;DHT22;2294;51.818;8.484;2023-03-04T04:53:21;5.70;99.90
4564;DHT22;2294;51.818;8.484;2023-03-04T04:55:48;5.70;99.90
4564;DHT22;2294;51.818;8.484;2023-03-04T04:58:15;5.70;99.90
4564;DHT22;2294;51.818;8.484;2023-03-04T05:00:42;5.70;99.90
4564;DHT22;2294;51.818;8.484;2023-03-04T05:03:10;5.70;99.90
4564;DHT22;2294;51.818;8.484;2023-03-04T05:05:37;5.70;99.90
4564;DHT22;2294;51.818;8.484;2023-03-04T05:08:04;5.70;99.90
4564;DHT22;2294;51.818;8.484;2023-03-04T05:10:31;5.70;99.90
4564;DHT22;2294;51.818;8.484;2023-03-04T05:12:58;5.70;99.90
4564;DHT22;2294;51.818;8.484;2023-03-04T05:15:25;5.70;99.90
4564;DHT22;2294;51.818;8.484;2023-03-04T05:17:52;5.80;99.90
4564;DHT22;2294;51.818;8.484;2023-03-04T05:20:20;5.70;99.90
4564;DHT22;2294;51.818;8.484;2023-03-04T05:22:48;5.70;99.90
4564;DHT22;2294;51.818;8.484;2023-03-04T05:25:15;5.70;99.90
4564;DHT22;2294;51.818;8.484;2023-03-04T05:27:42;5.70;99.90
4564;DHT22;2294;51.818;8.484;2023-03-04T05:30:10;5.70;99.90
4564;DHT22;2294;51.818;8.484;2023-03-04T05:32:37;5.70;99.90
4564;DHT22;2294;51.818;8.484;2023-03-04T05:35:05;5.70;99.90
4564;DHT22;2294;51.818;8.484;2023-03-04T05:37:34;5.70;99.90
4564;DHT22;2294;51.818;8.484;2023-03-04T05:40:00;5.70;99.90
4564;DHT22;2294;51.818;8.484;2023-03-04T05:42:27;5.70;99.90
4564;DHT22;2294;51.818;8.484;2023-03-04T05:44:54;5.70;99.90
4564;DHT22;2294;51.818;8.484;2023-03-04T05:47:21;5.80;99.90
4564;DHT22;2294;51.818;8.484;2023-03-04T05:49:48;5.80;99.90
4564;DHT22;2294;51.818;8.484;2023-03-04T05:52:15;5.70;99.90
4564;DHT22;2294;51.818;8.484;2023-03-04T05:54:43;5.80;99.90
4564;DHT22;2294;51.818;8.484;2023-03-04T05:57:10;5.80;99.90
4564;DHT22;2294;51.818;8.484;2023-03-04T05:59:37;5.80;99.90
4564;DHT22;2294;51.818;8.484;2023-03-04T06:02:04;5.80;99.90
4564;DHT22;2294;51.818;8.484;2023-03-04T06:04:31;5.80;99.90
4564;DHT22;2294;51.818;8.484;2023-03-04T06:06:57;5.80;99.90
4564;DHT22;2294;51.818;8.484;2023-03-04T06:09:24;5.80;99.90
4564;DHT22;2294;51.818;8.484;2023-03-04T06:11:53;5.80;99.90
4564;DHT22;2294;51.818;8.484;2023-03-04T06:14:19;5.90;99.90
4564;DHT22;2294;51.818;8.484;2023-03-04T06:16:46;5.90;99.90
4564;DHT22;2294;51.818;8.484;2023-03-04T06:19:13;5.80;99.90
4564;DHT22;2294;51.818;8.484;2023-03-04T06:21:40;5.90;99.90
4564;DHT22;2294;51.818;8.484;2023-03-04T06:24:07;5.90;99.90
4564;DHT22;2294;51.818;8.484;2023-03-04T06:26:34;5.90;99.90
4564;DHT22;2294;51.818;8.484;2023-03-04T06:29:05;5.90;99.90
4564;DHT22;2294;51.818;8.484;2023-03-04T06:31:32;5.90;99.90
4564;DHT22;2294;51.818;8.484;2023-03-04T06:33:59;5.90;99.90
4564;DHT22;2294;51.818;8.484;2023-03-04T06:36:26;6.00;99.90
4564;DHT22;2294;51.818;8.484;2023-03-04T06:38:53;6.00;99.90
4564;DHT22;2294;51.818;8.484;2023-03-04T06:41:20;6.00;99.90
4564;DHT22;2294;51.818;8.484;2023-03-04T06:43:47;6.00;99.90
4564;DHT22;2294;51.818;8.484;2023-03-04T06:46:15;6.10;99.90
4564;DHT22;2294;51.818;8.484;2023-03-04T06:48:42;6.10;99.90
4564;DHT22;2294;51.818;8.484;2023-03-04T06:51:10;6.00;99.90
4564;DHT22;2294;51.818;8.484;2023-03-04T06:53:38;6.10;99.90
4564;DHT22;2294;51.818;8.484;2023-03-04T06:56:06;6.10;99.90
4564;DHT22;2294;51.818;8.484;2023-03-04T06:58:34;7.30;99.90
4564;DHT22;2294;51.818;8.484;2023-03-04T07:01:09;6.20;99.90
4564;DHT22;2294;51.818;8.484;2023-03-04T07:03:38;6.30;99.90
4564;DHT22;2294;51.818;8.484;2023-03-04T07:06:05;6.30;99.90
4564;DHT22;2294;51.818;8.484;2023-03-04T07:08:32;6.30;99.90
4564;DHT22;2294;51.818;8.484;2023-03-04T07:11:00;6.20;99.90
4564;DHT22;2294;51.818;8.484;2023-03-04T07:13:27;6.20;99.90
4564;DHT22;2294;51.818;8.484;2023-03-04T07:15:53;6.40;99.90
4564;DHT22;2294;51.818;8.484;2023-03-04T07:18:20;6.50;99.90
4564;DHT22;2294;51.818;8.484;2023-03-04T07:20:50;6.50;99.90
4564;DHT22;2294;51.818;8.484;2023-03-04T07:23:18;6.50;99.90
4564;DHT22;2294;51.818;8.484;2023-03-04T07:25:45;6.60;99.90
4564;DHT22;2294;51.818;8.484;2023-03-04T07:28:12;6.40;99.90
4564;DHT22;2294;51.818;8.484;2023-03-04T07:30:39;6.40;99.90
4564;DHT22;2294;51.818;8.484;2023-03-04T07:33:06;6.60;99.90
4564;DHT22;2294;51.818;8.484;2023-03-04T07:35:33;6.60;99.90
4564;DHT22;2294;51.818;8.484;2023-03-04T07:38:01;6.70;99.90
4564;DHT22;2294;51.818;8.484;2023-03-04T07:40:28;6.80;99.90
4564;DHT22;2294;51.818;8.484;2023-03-04T07:42:55;6.80;99.90
4564;DHT22;2294;51.818;8.484;2023-03-04T07:45:24;6.80;99.90
4564;DHT22;2294;51.818;8.484;2023-03-04T07:47:51;6.90;99.90
4564;DHT22;2294;51.818;8.484;2023-03-04T07:50:19;6.90;99.90
4564;DHT22;2294;51.818;8.484;2023-03-04T07:52:47;6.90;99.90
4564;DHT22;2294;51.818;8.484;2023-03-04T07:55:17;6.80;99.90
4564;DHT22;2294;51.818;8.484;2023-03-04T07:57:46;6.80;99.90
4564;DHT22;2294;51.818;8.484;2023-03-04T08:00:15;7.00;99.90
4564;DHT22;2294;51.818;8.484;2023-03-04T08:02:42;7.00;99.90
4564;DHT22;2294;51.818;8.484;2023-03-04T08:05:09;7.10;99.90
4564;DHT22;2294;51.818;8.484;2023-03-04T08:07:36;6.90;99.90
4564;DHT22;2294;51.818;8.484;2023-03-04T08:10:03;6.60;99.90
4564;DHT22;2294;51.818;8.484;2023-03-04T08:12:32;6.80;99.90
4564;DHT22;2294;51.818;8.484;2023-03-04T08:14:59;6.90;99.90
4564;DHT22;2294;51.818;8.484;2023-03-04T08:17:25;6.80;99.90
4564;DHT22;2294;51.818;8.484;2023-03-04T08:19:54;6.70;99.90
4564;DHT22;2294;51.818;8.484;2023-03-04T08:22:21;6.70;99.90
4564;DHT22;2294;51.818;8.484;2023-03-04T08:24:48;6.90;99.90
4564;DHT22;2294;51.818;8.484;2023-03-04T08:27:15;7.10;99.90
4564;DHT22;2294;51.818;8.484;2023-03-04T08:29:43;7.00;99.90
4564;DHT22;2294;51.818;8.484;2023-03-04T08:32:16;6.80;99.90
4564;DHT22;2294;51.818;8.484;2023-03-04T08:34:43;6.90;99.90
4564;DHT22;2294;51.818;8.484;2023-03-04T08:37:10;7.00;99.90
4564;DHT22;2294;51.818;8.484;2023-03-04T08:39:38;7.10;99.90
4564;DHT22;2294;51.818;8.484;2023-03-04T08:42:04;7.20;99.90
4564;DHT22;2294;51.818;8.484;2023-03-04T08:44:31;7.20;99.90
4564;DHT22;2294;51.818;8.484;2023-03-04T08:47:00;7.50;99.90
4564;DHT22;2294;51.818;8.484;2023-03-04T08:49:27;7.50;99.90
4564;DHT22;2294;51.818;8.484;2023-03-04T08:51:54;7.40;99.90
4564;DHT22;2294;51.818;8.484;2023-03-04T08:54:21;7.20;99.90
4564;DHT22;2294;51.818;8.484;2023-03-04T08:56:47;7.30;99.90
4564;DHT22;2294;51.818;8.484;2023-03-04T08:59:15;7.30;99.90
4564;DHT22;2294;51.818;8.484;2023-03-04T09:01:42;7.20;99.90
4564;DHT22;2294;51.818;8.484;2023-03-04T09:04:10;7.50;99.90
4564;DHT22;2294;51.818;8.484;2023-03-04T09:06:37;7.40;99.90
4564;DHT22;2294;51.818;8.484;2023-03-04T09:09:04;7.50;99.90
4564;DHT22;2294;51.818;8.484;2023-03-04T09:11:31;7.60;99.90
4564;DHT22;2294;51.818;8.484;2023-03-04T09:13:58;7.80;99.90
4564;DHT22;2294;51.818;8.484;2023-03-04T09:16:25;8.00;99.90
4564;DHT22;2294;51.818;8.484;2023-03-04T09:18:52;7.90;99.90
4564;DHT22;2294;51.818;8.484;2023-03-04T09:21:20;7.80;99.90
4564;DHT22;2294;51.818;8.484;2023-03-04T09:23:48;8.00;99.90
4564;DHT22;2294;51.818;8.484;2023-03-04T09:26:18;8.00;99.90
4564;DHT22;2294;51.818;8.484;2023-03-04T09:28:49;7.90;99.90
4564;DHT22;2294;51.818;8.484;2023-03-04T09:31:16;7.80;99.90
4564;DHT22;2294;51.818;8.484;2023-03-04T09:33:43;8.20;99.90
4564;DHT22;2294;51.818;8.484;2023-03-04T09:36:12;7.80;99.90
4564;DHT22;2294;51.818;8.484;2023-03-04T09:38:41;8.10;99.90
4564;DHT22;2294;51.818;8.484;2023-03-04T09:41:11;8.00;99.90
4564;DHT22;2294;51.818;8.484;2023-03-04T09:43:39;8.10;99.90
4564;DHT22;2294;51.818;8.484;2023-03-04T09:46:10;8.00;99.90
4564;DHT22;2294;51.818;8.484;2023-03-04T09:48:44;8.10;99.90
4564;DHT22;2294;51.818;8.484;2023-03-04T09:51:19;8.10;99.90
4564;DHT22;2294;51.818;8.484;2023-03-04T09:53:58;8.20;99.90
4564;DHT22;2294;51.818;8.484;2023-03-04T09:56:29;8.30;99.90
4564;DHT22;2294;51.818;8.484;2023-03-04T09:59:06;8.10;99.90
4564;DHT22;2294;51.818;8.484;2023-03-04T10:01:38;8.30;99.90
4564;DHT22;2294;51.818;8.484;2023-03-04T10:04:13;8.50;99.90
4564;DHT22;2294;51.818;8.484;2023-03-04T10:06:41;8.30;99.90
4564;DHT22;2294;51.818;8.484;2023-03-04T10:09:12;8.10;99.90
4564;DHT22;2294;51.818;8.484;2023-03-04T10:11:43;8.40;99.90
4564;DHT22;2294;51.818;8.484;2023-03-04T10:14:26;8.90;99.90
4564;DHT22;2294;51.818;8.484;2023-03-04T10:16:59;8.90;99.90
4564;DHT22;2294;51.818;8.484;2023-03-04T10:19:37;8.90;99.90
4564;DHT22;2294;51.818;8.484;2023-03-04T10:22:16;8.70;99.90
4564;DHT22;2294;51.818;8.484;2023-03-04T10:24:46;8.90;99.90
4564;DHT22;2294;51.818;8.484;2023-03-04T10:27:16;8.90;99.90
4564;DHT22;2294;51.818;8.484;2023-03-04T10:29:44;8.80;99.90
4564;DHT22;2294;51.818;8.484;2023-03-04T10:32:13;9.00;99.90
4564;DHT22;2294;51.818;8.484;2023-03-04T10:34:41;9.00;99.90
4564;DHT22;2294;51.818;8.484;2023-03-04T10:37:09;9.20;99.90
4564;DHT22;2294;51.818;8.484;2023-03-04T10:39:38;9.40;99.90
4564;DHT22;2294;51.818;8.484;2023-03-04T10:42:23;9.20;99.90
4564;DHT22;2294;51.818;8.484;2023-03-04T10:44:55;9.50;99.90
4564;DHT22;2294;51.818;8.484;2023-03-04T10:47:23;9.70;99.90
4564;DHT22;2294;51.818;8.484;2023-03-04T10:49:53;9.60;99.90
4564;DHT22;2294;51.818;8.484;2023-03-04T10:52:27;9.80;99.90
4564;DHT22;2294;51.818;8.484;2023-03-04T10:54:56;10.00;99.90
4564;DHT22;2294;51.818;8.484;2023-03-04T10:57:32;10.00;99.90
4564;DHT22;2294;51.818;8.484;2023-03-04T11:00:00;10.20;99.90
4564;DHT22;2294;51.818;8.484;2023-03-04T11:02:29;10.50;99.90
4564;DHT22;2294;51.818;8.484;2023-03-04T11:05:10;10.30;99.90
4564;DHT22;2294;51.818;8.484;2023-03-04T11:07:43;10.40;99.90
4564;DHT22;2294;51.818;8.484;2023-03-04T11:10:16;10.20;99.90
4564;DHT22;2294;51.818;8.484;2023-03-04T11:12:50;10.40;99.90
4564;DHT22;2294;51.818;8.484;2023-03-04T11:15:20;10.60;99.90
4564;DHT22;2294;51.818;8.484;2023-03-04T11:17:54;10.70;99.90
4564;DHT22;2294;51.818;8.484;2023-03-04T11:20:28;10.40;99.90
4564;DHT22;2294;51.818;8.484;2023-03-04T11:23:00;10.10;99.90
4564;DHT22;2294;51.818;8.484;2023-03-04T11:25:33;9.90;99.90
4564;DHT22;2294;51.818;8.484;2023-03-04T11:28:05;10.00;99.90
4564;DHT22;2294;51.818;8.484;2023-03-04T11:30:40;10.00;99.90
4564;DHT22;2294;51.818;8.484;2023-03-04T11:33:16;10.20;99.90
4564;DHT22;2294;51.818;8.484;2023-03-04T11:35:53;10.10;99.90
4564;DHT22;2294;51.818;8.484;2023-03-04T11:38:28;10.10;99.90
4564;DHT22;2294;51.818;8.484;2023-03-04T11:40:58;9.80;99.90
4564;DHT22;2294;51.818;8.484;2023-03-04T11:43:31;10.00;99.90
4564;DHT22;2294;51.818;8.484;2023-03-04T11:46:22;10.30;99.90
4564;DHT22;2294;51.818;8.484;2023-03-04T11:48:58;10.20;99.90
4564;DHT22;2294;51.818;8.484;2023-03-04T11:51:35;10.00;99.90
4564;DHT22;2294;51.818;8.484;2023-03-04T11:54:19;10.00;99.90
4564;DHT22;2294;51.818;8.484;2023-03-04T11:56:51;10.20;99.90
4564;DHT22;2294;51.818;8.484;2023-03-04T11:59:37;10.00;99.90
4564;DHT22;2294;51.818;8.484;2023-03-04T12:02:16;10.00;99.90
4564;DHT22;2294;51.818;8.484;2023-03-04T12:04:54;9.90;99.90
4564;DHT22;2294;51.818;8.484;2023-03-04T12:07:42;9.30;99.90
4564;DHT22;2294;51.818;8.484;2023-03-04T12:10:19;9.30;99.90
4564;DHT22;2294;51.818;8.484;2023-03-04T12:15:56;9.00;99.90
4564;DHT22;2294;51.818;8.484;2023-03-04T12:18:37;9.10;99.90
4564;DHT22;2294;51.818;8.484;2023-03-04T12:21:16;9.10;99.90
4564;DHT22;2294;51.818;8.484;2023-03-04T12:26:38;8.90;99.90
4564;DHT22;2294;51.818;8.484;2023-03-04T12:29:14;8.90;99.90
4564;DHT22;2294;51.818;8.484;2023-03-04T12:31:50;8.70;99.90
4564;DHT22;2294;51.818;8.484;2023-03-04T12:37:41;8.80;99.90
4564;DHT22;2294;51.818;8.484;2023-03-04T12:40:29;8.90;99.90
4564;DHT22;2294;51.818;8.484;2023-03-04T12:43:07;8.90;99.90
4564;DHT22;2294;51.818;8.484;2023-03-04T12:45:41;8.80;99.90
4564;DHT22;2294;51.818;8.484;2023-03-04T12:48:20;8.70;99.90
4564;DHT22;2294;51.818;8.484;2023-03-04T12:50:55;8.70;99.90
4564;DHT22;2294;51.818;8.484;2023-03-04T12:53:29;8.60;99.90
4564;DHT22;2294;51.818;8.484;2023-03-04T12:55:58;8.60;99.90
4564;DHT22;2294;51.818;8.484;2023-03-04T12:58:28;8.60;99.90
4564;DHT22;2294;51.818;8.484;2023-03-04T13:01:01;8.50;99.90
4564;DHT22;2294;51.818;8.484;2023-03-04T13:03:39;8.50;99.90
4564;DHT22;2294;51.818;8.484;2023-03-04T13:06:21;8.50;99.90
4564;DHT22;2294;51.818;8.484;2023-03-04T13:09:06;8.40;99.90
4564;DHT22;2294;51.818;8.484;2023-03-04T13:11:43;8.20;99.90
4564;DHT22;2294;51.818;8.484;2023-03-04T13:14:32;8.10;99.90
4564;DHT22;2294;51.818;8.484;2023-03-04T13:17:01;8.00;99.90
4564;DHT22;2294;51.818;8.484;2023-03-04T13:19:45;7.90;99.90
4564;DHT22;2294;51.818;8.484;2023-03-04T13:22:41;8.00;99.90
4564;DHT22;2294;51.818;8.484;2023-03-04T13:25:36;8.10;99.90
4564;DHT22;2294;51.818;8.484;2023-03-04T13:28:17;8.10;99.90
4564;DHT22;2294;51.818;8.484;2023-03-04T13:31:16;8.30;99.90
4564;DHT22;2294;51.818;8.484;2023-03-04T13:34:02;8.40;99.90
4564;DHT22;2294;51.818;8.484;2023-03-04T13:36:52;8.50;99.90
4564;DHT22;2294;51.818;8.484;2023-03-04T13:39:34;8.40;99.90
4564;DHT22;2294;51.818;8.484;2023-03-04T13:42:02;8.60;99.90
4564;DHT22;2294;51.818;8.484;2023-03-04T13:47:40;8.50;99.90
4564;DHT22;2294;51.818;8.484;2023-03-04T13:50:37;8.50;99.90
4564;DHT22;2294;51.818;8.484;2023-03-04T13:53:41;8.50;99.90
4564;DHT22;2294;51.818;8.484;2023-03-04T13:56:20;8.60;99.90
4564;DHT22;2294;51.818;8.484;2023-03-04T13:58:49;8.80;99.90
4564;DHT22;2294;51.818;8.484;2023-03-04T14:01:24;8.60;99.90
4564;DHT22;2294;51.818;8.484;2023-03-04T14:03:51;8.90;99.90
4564;DHT22;2294;51.818;8.484;2023-03-04T14:06:19;9.20;99.90
4564;DHT22;2294;51.818;8.484;2023-03-04T14:08:49;8.90;99.90
4564;DHT22;2294;51.818;8.484;2023-03-04T14:11:23;8.60;99.90
4564;DHT22;2294;51.818;8.484;2023-03-04T14:13:50;8.90;99.90
4564;DHT22;2294;51.818;8.484;2023-03-04T14:16:19;9.10;99.90
4564;DHT22;2294;51.818;8.484;2023-03-04T14:18:56;9.40;99.90
4564;DHT22;2294;51.818;8.484;2023-03-04T14:21:23;8.80;99.90
4564;DHT22;2294;51.818;8.484;2023-03-04T14:24:04;8.30;99.90
4564;DHT22;2294;51.818;8.484;2023-03-04T14:26:32;8.30;99.90
4564;DHT22;2294;51.818;8.484;2023-03-04T14:28:59;8.20;99.90
4564;DHT22;2294;51.818;8.484;2023-03-04T14:31:29;8.30;99.90
4564;DHT22;2294;51.818;8.484;2023-03-04T14:33:57;8.10;99.90
4564;DHT22;2294;51.818;8.484;2023-03-04T14:36:28;8.00;99.90
4564;DHT22;2294;51.818;8.484;2023-03-04T14:38:57;8.00;99.90
4564;DHT22;2294;51.818;8.484;2023-03-04T14:41:30;8.00;99.90
4564;DHT22;2294;51.818;8.484;2023-03-04T14:44:07;8.10;99.90
4564;DHT22;2294;51.818;8.484;2023-03-04T14:46:39;8.00;99.90
4564;DHT22;2294;51.818;8.484;2023-03-04T14:49:10;7.90;99.90
4564;DHT22;2294;51.818;8.484;2023-03-04T14:51:44;7.80;99.90
4564;DHT22;2294;51.818;8.484;2023-03-04T14:54:27;7.80;99.90
4564;DHT22;2294;51.818;8.484;2023-03-04T14:56:56;7.80;99.90
4564;DHT22;2294;51.818;8.484;2023-03-04T14:59:33;7.70;99.90
4564;DHT22;2294;51.818;8.484;2023-03-04T15:02:22;7.60;99.90
4564;DHT22;2294;51.818;8.484;2023-03-04T15:04:54;7.50;99.90
4564;DHT22;2294;51.818;8.484;2023-03-04T15:07:29;7.60;99.90
4564;DHT22;2294;51.818;8.484;2023-03-04T15:09:56;7.50;99.90
4564;DHT22;2294;51.818;8.484;2023-03-04T15:12:27;7.40;99.90
4564;DHT22;2294;51.818;8.484;2023-03-04T15:14:55;7.40;99.90
4564;DHT22;2294;51.818;8.484;2023-03-04T15:17:32;7.30;99.90
4564;DHT22;2294;51.818;8.484;2023-03-04T15:20:18;7.20;99.90
4564;DHT22;2294;51.818;8.484;2023-03-04T15:22:57;7.20;99.90
4564;DHT22;2294;51.818;8.484;2023-03-04T15:25:24;7.30;99.90
4564;DHT22;2294;51.818;8.484;2023-03-04T15:27:53;7.50;99.90
4564;DHT22;2294;51.818;8.484;2023-03-04T15:30:22;7.60;99.90
4564;DHT22;2294;51.818;8.484;2023-03-04T15:32:50;7.60;99.90
4564;DHT22;2294;51.818;8.484;2023-03-04T15:35:18;7.40;99.90
4564;DHT22;2294;51.818;8.484;2023-03-04T15:37:47;7.30;99.90
4564;DHT22;2294;51.818;8.484;2023-03-04T15:40:19;7.30;99.90
4564;DHT22;2294;51.818;8.484;2023-03-04T15:42:48;7.20;99.90
4564;DHT22;2294;51.818;8.484;2023-03-04T15:45:21;7.30;99.90
4564;DHT22;2294;51.818;8.484;2023-03-04T15:47:48;7.20;99.90
4564;DHT22;2294;51.818;8.484;2023-03-04T15:50:15;7.20;99.90
4564;DHT22;2294;51.818;8.484;2023-03-04T15:52:46;7.20;99.90
4564;DHT22;2294;51.818;8.484;2023-03-04T15:55:15;7.60;99.90
4564;DHT22;2294;51.818;8.484;2023-03-04T15:57:44;7.20;99.90
4564;DHT22;2294;51.818;8.484;2023-03-04T16:00:13;7.20;99.90
4564;DHT22;2294;51.818;8.484;2023-03-04T16:02:42;7.20;99.90
4564;DHT22;2294;51.818;8.484;2023-03-04T16:05:09;7.10;99.90
4564;DHT22;2294;51.818;8.484;2023-03-04T16:07:37;7.20;99.90
4564;DHT22;2294;51.818;8.484;2023-03-04T16:10:11;7.10;99.90
4564;DHT22;2294;51.818;8.484;2023-03-04T16:12:40;7.00;99.90
4564;DHT22;2294;51.818;8.484;2023-03-04T16:15:13;7.00;99.90
4564;DHT22;2294;51.818;8.484;2023-03-04T16:17:41;7.00;99.90
4564;DHT22;2294;51.818;8.484;2023-03-04T16:20:11;6.90;99.90
4564;DHT22;2294;51.818;8.484;2023-03-04T16:22:38;6.90;99.90
4564;DHT22;2294;51.818;8.484;2023-03-04T16:25:09;6.90;99.90
4564;DHT22;2294;51.818;8.484;2023-03-04T16:27:36;7.00;99.90
4564;DHT22;2294;51.818;8.484;2023-03-04T16:30:04;7.00;99.90
4564;DHT22;2294;51.818;8.484;2023-03-04T16:32:31;6.90;99.90
4564;DHT22;2294;51.818;8.484;2023-03-04T16:35:00;6.80;99.90
4564;DHT22;2294;51.818;8.484;2023-03-04T16:37:27;6.80;99.90
4564;DHT22;2294;51.818;8.484;2023-03-04T16:39:54;6.70;99.90
4564;DHT22;2294;51.818;8.484;2023-03-04T16:42:21;6.70;99.90
4564;DHT22;2294;51.818;8.484;2023-03-04T16:44:47;6.70;99.90
4564;DHT22;2294;51.818;8.484;2023-03-04T16:47:15;6.60;99.90
4564;DHT22;2294;51.818;8.484;2023-03-04T16:49:42;6.60;99.90